Time;durP1;ratioP1;P1;durP2;ratioP2;P2;SDS_P1;SDS_P2;PMS_P1;PMS_P2;Temp;Humidity;BMP_temperature;BMP_pressure;BME280_temperature;BME280_humidity;BME280_pressure;Samples;Min_cycle;Max_cycle;Signal;HPM_P1;HPM_P2
2021/06/17 00:00:30;;;;;;;4.10;3.70;;;20.50;99.90;;;;;;4901304;28;20404;-74
2021/06/17 00:02:56;;;;;;;5.38;4.00;;;20.40;99.90;;;;;;4899001;29;20403;-74
2021/06/17 00:05:23;;;;;;;4.20;3.90;;;20.40;99.90;;;;;;4879637;29;20438;-74
2021/06/17 00:07:49;;;;;;;5.43;4.40;;;20.30;99.90;;;;;;4902619;29;20390;-75
2021/06/17 00:10:25;;;;;;;4.40;4.00;;;20.30;99.90;;;;;;4895828;29;20486;-74
2021/06/17 00:12:51;;;;;;;4.28;3.97;;;20.30;99.90;;;;;;4907110;29;20396;-74
2021/06/17 00:15:18;;;;;;;4.97;4.47;;;20.20;99.90;;;;;;4894475;28;20397;-75
2021/06/17 00:17:43;;;;;;;4.20;3.80;;;20.20;99.90;;;;;;4893072;29;20477;-74
2021/06/17 00:20:10;;;;;;;5.05;4.25;;;20.20;99.90;;;;;;4927505;29;20615;-74
2021/06/17 00:22:35;;;;;;;5.05;4.10;;;20.10;99.90;;;;;;4938603;29;20394;-74
2021/06/17 00:25:01;;;;;;;4.93;4.40;;;20.10;99.90;;;;;;4910959;29;21042;-74
2021/06/17 00:27:27;;;;;;;4.07;3.78;;;20.00;99.90;;;;;;4880109;29;20384;-74
2021/06/17 00:29:53;;;;;;;3.92;3.63;;;20.00;99.90;;;;;;4894622;29;20404;-74
2021/06/17 00:32:19;;;;;;;4.20;3.80;;;19.90;99.90;;;;;;4897697;29;20487;-74
2021/06/17 00:34:45;;;;;;;4.70;4.30;;;20.00;99.90;;;;;;4939831;29;21159;-74
2021/06/17 00:37:10;;;;;;;5.47;3.88;;;19.90;99.90;;;;;;4895112;29;20401;-75
2021/06/17 00:39:37;;;;;;;4.23;3.83;;;19.80;99.90;;;;;;4919229;29;20799;-74
2021/06/17 00:42:04;;;;;;;4.93;4.45;;;19.80;99.90;;;;;;4881077;29;20421;-74
2021/06/17 00:44:30;;;;;;;4.00;3.70;;;19.80;99.90;;;;;;4926576;29;20414;-75
2021/06/17 00:46:55;;;;;;;4.38;4.00;;;19.80;99.90;;;;;;4905987;29;20968;-74
2021/06/17 00:49:21;;;;;;;4.90;4.30;;;19.80;99.90;;;;;;4898688;29;20622;-74
2021/06/17 00:51:47;;;;;;;4.90;4.20;;;19.70;99.90;;;;;;4911865;29;20414;-74
2021/06/17 00:54:31;;;;;;;4.85;4.32;;;19.70;99.90;;;;;;4917708;29;20920;-74
2021/06/17 00:56:57;;;;;;;3.85;3.55;;;19.70;99.90;;;;;;4884293;29;20928;-74
2021/06/17 00:59:23;;;;;;;4.72;4.25;;;19.60;99.90;;;;;;4900278;29;20418;-74
2021/06/17 01:01:49;;;;;;;4.73;4.33;;;19.60;99.90;;;;;;4897054;29;20458;-74
2021/06/17 01:04:14;;;;;;;4.50;4.10;;;19.60;99.90;;;;;;4908881;29;20472;-76
2021/06/17 01:06:40;;;;;;;4.10;3.80;;;19.50;99.90;;;;;;4895599;29;21124;-75
2021/06/17 01:09:08;;;;;;;4.30;3.93;;;19.50;99.90;;;;;;4900596;29;20451;-75
2021/06/17 01:11:36;;;;;;;4.28;3.97;;;19.50;99.90;;;;;;4915160;29;20907;-75
2021/06/17 01:14:23;;;;;;;4.60;4.20;;;19.50;99.90;;;;;;4914225;28;20897;-74
2021/06/17 01:16:51;;;;;;;4.53;4.00;;;19.40;99.90;;;;;;4911856;29;20849;-75
2021/06/17 01:19:32;;;;;;;4.33;4.00;;;19.40;99.90;;;;;;4930602;29;20406;-74
2021/06/17 01:21:58;;;;;;;4.78;4.25;;;19.40;99.90;;;;;;4919803;29;20418;-74
2021/06/17 01:24:39;;;;;;;5.07;4.57;;;19.30;99.90;;;;;;4925524;29;20651;-74
2021/06/17 01:27:44;;;;;;;4.70;4.28;;;19.30;99.90;;;;;;4914705;29;20442;-76
2021/06/17 01:30:16;;;;;;;4.30;3.90;;;19.30;99.90;;;;;;4949358;28;20435;-75
2021/06/17 01:32:51;;;;;;;4.63;4.18;;;19.30;99.90;;;;;;4927966;29;20421;-74
2021/06/17 01:35:18;;;;;;;4.18;3.80;;;19.20;99.90;;;;;;4897244;29;20400;-74
2021/06/17 01:37:44;;;;;;;5.65;4.53;;;19.20;99.90;;;;;;4895173;29;20403;-76
2021/06/17 01:40:10;;;;;;;4.40;4.00;;;19.20;99.90;;;;;;4916573;29;20410;-74
2021/06/17 01:42:36;;;;;;;4.73;4.23;;;19.20;99.90;;;;;;4913343;29;20402;-74
2021/06/17 01:45:03;;;;;;;6.30;4.73;;;19.20;99.90;;;;;;4913765;29;20430;-75
2021/06/17 01:47:29;;;;;;;4.72;4.32;;;19.10;99.90;;;;;;4896816;29;20410;-75
2021/06/17 01:49:55;;;;;;;5.25;4.75;;;19.10;99.90;;;;;;4906476;29;20402;-75
2021/06/17 01:52:22;;;;;;;5.43;4.70;;;19.10;99.90;;;;;;4901405;29;20418;-75
2021/06/17 01:54:48;;;;;;;4.20;3.85;;;19.00;99.90;;;;;;4911564;29;20426;-75
2021/06/17 01:57:14;;;;;;;5.03;4.53;;;19.00;99.90;;;;;;4902120;29;20436;-75
2021/06/17 01:59:41;;;;;;;4.80;4.30;;;19.00;99.90;;;;;;4927461;29;20470;-75
2021/06/17 02:02:07;;;;;;;5.10;4.60;;;18.90;99.90;;;;;;4893859;29;20892;-74
2021/06/17 02:04:34;;;;;;;4.50;4.10;;;18.90;99.90;;;;;;4929114;29;20405;-74
2021/06/17 02:07:00;;;;;;;4.57;4.18;;;18.90;99.90;;;;;;4897398;29;20543;-74
2021/06/17 02:09:26;;;;;;;7.05;4.60;;;18.90;99.90;;;;;;4897647;29;20432;-75
2021/06/17 02:11:52;;;;;;;4.85;4.45;;;19.00;99.90;;;;;;4944743;29;20412;-74
2021/06/17 02:14:17;;;;;;;5.77;5.20;;;18.90;99.90;;;;;;4881082;29;20405;-75
2021/06/17 02:16:43;;;;;;;5.20;4.22;;;18.90;99.90;;;;;;4894163;29;20421;-74
2021/06/17 02:19:12;;;;;;;5.33;4.83;;;18.80;99.90;;;;;;4914702;29;20456;-74
2021/06/17 02:21:37;;;;;;;4.97;4.47;;;18.80;99.90;;;;;;4913970;29;20402;-74
2021/06/17 02:24:03;;;;;;;6.93;6.22;;;18.80;99.90;;;;;;4901297;29;20409;-75
2021/06/17 02:26:29;;;;;;;6.65;6.00;;;18.80;99.90;;;;;;4919926;29;20412;-74
2021/06/17 02:28:55;;;;;;;5.07;4.38;;;18.80;99.90;;;;;;4895101;29;20403;-74
2021/06/17 02:31:26;;;;;;;5.22;4.50;;;18.80;99.90;;;;;;4897099;29;20449;-74
2021/06/17 02:33:52;;;;;;;4.90;4.50;;;18.70;99.90;;;;;;4881413;29;20410;-75
2021/06/17 02:36:22;;;;;;;5.03;4.40;;;18.70;99.90;;;;;;4888373;28;21143;-74
2021/06/17 02:38:48;;;;;;;4.60;4.20;;;18.70;99.90;;;;;;4911017;29;20413;-75
2021/06/17 02:41:14;;;;;;;4.90;4.40;;;18.70;99.90;;;;;;4928702;28;20921;-75
2021/06/17 02:43:43;;;;;;;7.40;4.72;;;18.70;99.90;;;;;;4894346;29;20406;-75
2021/06/17 02:46:09;;;;;;;4.75;4.35;;;18.70;99.90;;;;;;4900113;29;20403;-75
2021/06/17 02:48:35;;;;;;;4.88;4.47;;;18.70;99.90;;;;;;4908463;29;20513;-74
2021/06/17 02:51:00;;;;;;;5.30;4.80;;;18.70;99.90;;;;;;4901445;29;20415;-74
2021/06/17 02:53:26;;;;;;;5.10;4.38;;;18.70;99.90;;;;;;4909155;29;20980;-74
2021/06/17 02:55:52;;;;;;;5.73;5.23;;;18.60;99.90;;;;;;4900031;29;20399;-74
2021/06/17 02:58:50;;;;;;;5.07;4.57;;;18.60;99.90;;;;;;4896008;29;20432;-74
2021/06/17 03:01:19;;;;;;;5.70;5.10;;;18.50;99.90;;;;;;4894377;28;20441;-74
2021/06/17 03:03:47;;;;;;;5.43;4.90;;;18.50;99.90;;;;;;4905727;29;20402;-74
2021/06/17 03:06:30;;;;;;;5.07;4.53;;;18.50;99.90;;;;;;4912103;29;20939;-75
2021/06/17 03:08:57;;;;;;;5.40;4.80;;;18.50;99.90;;;;;;4920273;29;21189;-74
2021/06/17 03:11:26;;;;;;;5.10;4.68;;;18.50;99.90;;;;;;4911040;29;20416;-74
2021/06/17 03:13:56;;;;;;;5.40;4.90;;;18.50;99.90;;;;;;4921539;28;20461;-74
2021/06/17 03:16:28;;;;;;;5.97;5.00;;;18.50;99.90;;;;;;4901229;28;20469;-74
2021/06/17 03:18:54;;;;;;;5.22;4.82;;;18.50;99.90;;;;;;4905259;29;20419;-74
2021/06/17 03:21:20;;;;;;;5.03;4.60;;;18.50;99.90;;;;;;4898645;29;20406;-74
2021/06/17 03:23:45;;;;;;;5.70;5.20;;;18.50;99.90;;;;;;4895938;29;20973;-74
2021/06/17 03:26:11;;;;;;;5.37;4.93;;;18.50;99.90;;;;;;4900642;29;20412;-73
2021/06/17 03:28:38;;;;;;;5.80;5.20;;;18.50;99.90;;;;;;4895409;29;20409;-74
2021/06/17 03:31:04;;;;;;;7.25;5.72;;;18.50;99.90;;;;;;4889718;29;20553;-73
2021/06/17 03:33:33;;;;;;;5.78;5.20;;;18.50;99.90;;;;;;4911076;29;20394;-74
2021/06/17 03:36:00;;;;;;;7.03;5.10;;;18.60;99.90;;;;;;4889522;29;20441;-74
2021/06/17 03:38:25;;;;;;;6.45;5.20;;;18.60;99.90;;;;;;4899656;29;20399;-74
2021/06/17 03:40:51;;;;;;;5.95;4.68;;;18.70;99.90;;;;;;4910648;29;21086;-74
2021/06/17 03:43:17;;;;;;;5.97;5.47;;;18.70;99.90;;;;;;4893410;29;20486;-74
2021/06/17 03:45:43;;;;;;;6.15;5.55;;;18.70;99.90;;;;;;4894816;29;20413;-74
2021/06/17 03:48:08;;;;;;;5.37;4.73;;;18.80;99.90;;;;;;4896411;29;20394;-74
2021/06/17 03:50:34;;;;;;;7.90;4.70;;;18.80;99.90;;;;;;4899242;29;21182;-72
2021/06/17 03:53:00;;;;;;;5.67;5.13;;;18.80;99.90;;;;;;4892229;29;20494;-74
2021/06/17 03:55:26;;;;;;;5.32;4.82;;;18.90;99.90;;;;;;4913880;29;20525;-74
2021/06/17 03:57:52;;;;;;;5.40;4.90;;;19.00;99.90;;;;;;4926419;29;20394;-74
2021/06/17 04:00:19;;;;;;;5.65;5.10;;;19.00;99.90;;;;;;4894859;29;20412;-74
2021/06/17 04:02:45;;;;;;;5.03;4.60;;;19.10;99.90;;;;;;4896846;29;20389;-73
2021/06/17 04:05:11;;;;;;;5.13;4.73;;;19.10;99.90;;;;;;4887008;28;20912;-74
2021/06/17 04:07:37;;;;;;;5.88;5.20;;;19.20;99.90;;;;;;4911912;29;20473;-74
2021/06/17 04:10:03;;;;;;;5.97;5.45;;;19.30;99.90;;;;;;4880969;29;20434;-74
2021/06/17 04:12:29;;;;;;;5.60;5.05;;;19.40;99.90;;;;;;4910981;29;20557;-74
2021/06/17 04:14:57;;;;;;;7.13;5.72;;;19.40;99.90;;;;;;4896256;29;20489;-74
2021/06/17 04:17:25;;;;;;;5.43;4.93;;;19.50;99.90;;;;;;4897574;29;20405;-75
2021/06/17 04:19:51;;;;;;;5.90;5.32;;;19.50;99.90;;;;;;4884625;29;20413;-74
2021/06/17 04:22:17;;;;;;;8.02;6.45;;;19.60;99.90;;;;;;4915066;29;20402;-74
2021/06/17 04:24:46;;;;;;;6.03;5.20;;;19.70;99.90;;;;;;4919849;29;26582;-74
2021/06/17 04:27:12;;;;;;;5.28;4.85;;;19.80;99.90;;;;;;4915052;29;20991;-76
2021/06/17 04:29:39;;;;;;;5.70;5.13;;;19.90;99.90;;;;;;4912343;29;20408;-74
2021/06/17 04:32:06;;;;;;;5.47;4.97;;;19.90;99.90;;;;;;4908760;29;20420;-73
2021/06/17 04:34:32;;;;;;;6.50;5.90;;;20.00;99.90;;;;;;4914329;28;20528;-74
2021/06/17 04:36:58;;;;;;;5.72;5.22;;;20.10;99.90;;;;;;4899366;29;20405;-74
2021/06/17 04:39:26;;;;;;;6.07;5.10;;;20.20;99.90;;;;;;4906019;29;20408;-74
2021/06/17 04:41:52;;;;;;;5.85;5.35;;;20.30;99.90;;;;;;4901431;29;20488;-74
2021/06/17 04:44:18;;;;;;;5.63;5.13;;;20.40;99.90;;;;;;4921558;29;20541;-74
2021/06/17 04:46:44;;;;;;;7.85;5.53;;;20.50;99.90;;;;;;4901703;28;20409;-76
2021/06/17 04:49:13;;;;;;;6.43;5.93;;;20.60;99.90;;;;;;4894050;29;20406;-76
2021/06/17 04:51:39;;;;;;;6.13;5.53;;;20.80;99.90;;;;;;4915263;29;20436;-73
2021/06/17 04:54:19;;;;;;;6.47;5.60;;;20.70;99.90;;;;;;4903380;29;20934;-74
2021/06/17 04:56:46;;;;;;;5.75;5.25;;;20.80;99.90;;;;;;4899754;29;20444;-73
2021/06/17 04:59:12;;;;;;;6.45;5.85;;;21.00;99.90;;;;;;4903915;29;20410;-75
2021/06/17 05:01:40;;;;;;;8.60;6.20;;;21.10;99.90;;;;;;4893789;29;20399;-76
2021/06/17 05:04:09;;;;;;;5.80;5.28;;;21.20;99.90;;;;;;4929016;28;20897;-74
2021/06/17 05:06:37;;;;;;;5.93;5.43;;;21.30;99.90;;;;;;4899168;29;20981;-77
2021/06/17 05:11:50;;;;;;;5.25;4.82;;;21.60;99.90;;;;;;4917041;29;20444;-76
2021/06/17 05:14:16;;;;;;;5.43;4.95;;;21.70;99.90;;;;;;4899571;28;20497;-76
2021/06/17 05:16:42;;;;;;;6.25;5.68;;;21.90;99.90;;;;;;4887165;29;20534;-76
2021/06/17 05:19:08;;;;;;;6.30;5.63;;;22.00;99.90;;;;;;4917741;28;20402;-77
2021/06/17 05:21:34;;;;;;;5.38;4.88;;;22.10;99.90;;;;;;4892104;29;20895;-78
2021/06/17 05:24:01;;;;;;;5.70;5.13;;;22.30;99.90;;;;;;4915106;28;20497;-77
2021/06/17 05:26:27;;;;;;;5.80;5.20;;;22.40;99.90;;;;;;4932670;29;20394;-77
2021/06/17 05:28:53;;;;;;;6.43;5.28;;;22.60;99.90;;;;;;4917519;29;20476;-77
2021/06/17 05:31:19;;;;;;;5.73;5.20;;;22.70;99.90;;;;;;4905725;29;20656;-78
2021/06/17 05:33:45;;;;;;;5.73;5.20;;;22.90;99.90;;;;;;4886965;29;20405;-77
2021/06/17 05:36:11;;;;;;;6.60;4.97;;;23.00;99.90;;;;;;4915453;29;20395;-78
2021/06/17 05:38:37;;;;;;;5.25;4.75;;;23.10;99.90;;;;;;4920016;29;20753;-78
2021/06/17 05:41:03;;;;;;;5.65;5.15;;;23.30;99.90;;;;;;4903917;29;20464;-78
2021/06/17 05:43:29;;;;;;;4.78;4.35;;;23.40;99.90;;;;;;4929717;29;20429;-77
2021/06/17 05:45:55;;;;;;;5.40;4.78;;;23.60;99.90;;;;;;4897082;28;20421;-77
2021/06/17 05:48:21;;;;;;;5.53;5.03;;;23.80;99.90;;;;;;4905109;29;20398;-78
2021/06/17 05:50:48;;;;;;;6.00;5.50;;;24.00;99.90;;;;;;4915114;29;20401;-76
2021/06/17 05:53:13;;;;;;;6.07;4.70;;;24.10;99.90;;;;;;4913926;29;20420;-75
2021/06/17 05:55:39;;;;;;;5.07;4.57;;;24.30;99.90;;;;;;4899212;29;20386;-76
2021/06/17 05:58:05;;;;;;;6.40;5.47;;;24.40;99.90;;;;;;4896287;29;20404;-75
2021/06/17 06:00:31;;;;;;;5.07;4.57;;;24.50;99.90;;;;;;4916680;29;20407;-75
2021/06/17 06:02:57;;;;;;;5.57;4.50;;;24.60;99.90;;;;;;4901393;29;20672;-76
2021/06/17 06:05:23;;;;;;;5.73;5.23;;;24.50;99.90;;;;;;4912211;29;20412;-77
2021/06/17 06:07:56;;;;;;;5.47;4.97;;;24.60;99.90;;;;;;4915467;28;20406;-76
2021/06/17 06:10:22;;;;;;;7.70;5.22;;;24.80;99.90;;;;;;4894397;29;20402;-76
2021/06/17 06:12:47;;;;;;;5.63;4.40;;;24.90;99.90;;;;;;4930120;29;20932;-76
2021/06/17 06:15:13;;;;;;;5.20;4.77;;;25.20;99.90;;;;;;4894753;29;20974;-76
2021/06/17 06:17:39;;;;;;;5.80;5.18;;;25.30;99.90;;;;;;4917230;29;20971;-76
2021/06/17 06:20:06;;;;;;;5.18;4.65;;;25.40;99.90;;;;;;4897786;29;20933;-76
2021/06/17 06:22:32;;;;;;;5.72;4.38;;;25.50;99.90;;;;;;4909771;29;20440;-76
2021/06/17 06:24:57;;;;;;;4.23;3.83;;;25.70;99.90;;;;;;4900843;29;20423;-76
2021/06/17 06:27:23;;;;;;;5.00;4.50;;;25.90;99.90;;;;;;4914942;29;20411;-77
2021/06/17 06:29:48;;;;;;;5.22;4.45;;;26.10;99.90;;;;;;4921189;29;20410;-77
2021/06/17 06:32:15;;;;;;;5.87;4.80;;;26.20;99.90;;;;;;4913826;29;20614;-76
2021/06/17 06:34:40;;;;;;;4.97;4.35;;;26.20;99.90;;;;;;4899133;29;20423;-77
2021/06/17 06:37:06;;;;;;;3.97;3.60;;;26.10;99.90;;;;;;4913113;29;20436;-76
2021/06/17 06:39:32;;;;;;;4.18;3.78;;;26.20;99.90;;;;;;4883541;29;20399;-76
2021/06/17 06:41:58;;;;;;;5.40;4.28;;;26.40;99.90;;;;;;4913590;29;21057;-76
2021/06/17 06:44:24;;;;;;;4.47;4.10;;;26.50;99.90;;;;;;4913811;29;20774;-76
2021/06/17 06:46:54;;;;;;;4.80;3.80;;;26.60;99.90;;;;;;4899310;29;20503;-76
2021/06/17 06:49:19;;;;;;;4.70;4.30;;;26.90;99.90;;;;;;4898811;29;20407;-76
2021/06/17 06:51:45;;;;;;;4.45;3.90;;;26.90;99.90;;;;;;4883253;29;20409;-76
2021/06/17 06:54:11;;;;;;;4.67;3.70;;;27.20;99.90;;;;;;4913130;29;20495;-76
2021/06/17 06:56:37;;;;;;;5.68;4.20;;;27.30;99.90;;;;;;4904688;29;20515;-76
2021/06/17 06:59:04;;;;;;;4.40;4.00;;;27.30;99.90;;;;;;4902518;29;21085;-76
2021/06/17 07:01:30;;;;;;;4.15;3.85;;;27.60;99.90;;;;;;4894087;29;20949;-76
2021/06/17 07:03:56;;;;;;;4.55;4.07;;;27.70;99.90;;;;;;4889676;29;20400;-77
2021/06/17 07:06:22;;;;;;;3.67;3.38;;;28.00;99.90;;;;;;4909466;29;20502;-78
2021/06/17 07:08:47;;;;;;;4.43;4.03;;;28.20;99.90;;;;;;4899477;29;20519;-76
2021/06/17 07:11:13;;;;;;;3.80;3.50;;;28.40;99.90;;;;;;4910207;29;20406;-77
2021/06/17 07:13:39;;;;;;;3.53;3.20;;;28.30;99.90;;;;;;4902016;29;21157;-76
2021/06/17 07:16:05;;;;;;;4.83;3.40;;;28.40;99.90;;;;;;4922433;29;20409;-76
2021/06/17 07:18:32;;;;;;;3.90;3.57;;;28.30;99.90;;;;;;4909529;29;20402;-75
2021/06/17 07:20:57;;;;;;;3.63;3.33;;;28.40;99.90;;;;;;4905751;29;20425;-76
2021/06/17 07:23:27;;;;;;;3.65;3.35;;;28.40;99.90;;;;;;4907378;29;20413;-76
2021/06/17 07:25:53;;;;;;;3.83;3.53;;;28.60;99.90;;;;;;4906473;28;20402;-76
2021/06/17 07:28:18;;;;;;;4.30;3.90;;;28.70;99.90;;;;;;4915578;29;20412;-76
2021/06/17 07:30:44;;;;;;;3.30;3.03;;;28.80;99.90;;;;;;4918940;29;20942;-76
2021/06/17 07:33:10;;;;;;;5.28;3.38;;;29.10;99.90;;;;;;4915203;29;20463;-77
2021/06/17 07:35:36;;;;;;;4.17;3.77;;;29.30;99.90;;;;;;4910423;29;20432;-76
2021/06/17 07:38:02;;;;;;;4.03;3.70;;;29.50;99.90;;;;;;4901398;29;20402;-76
2021/06/17 07:40:27;;;;;;;3.72;3.42;;;29.50;99.90;;;;;;4927249;29;20429;-78
2021/06/17 07:42:53;;;;;;;3.93;3.53;;;29.60;99.90;;;;;;4901907;28;20489;-76
2021/06/17 07:45:19;;;;;;;3.80;3.42;;;29.70;99.90;;;;;;4901244;28;20394;-78
2021/06/17 07:47:44;;;;;;;3.80;3.50;;;29.60;99.90;;;;;;4915116;29;20398;-76
2021/06/17 07:50:11;;;;;;;4.20;3.38;;;29.50;99.90;;;;;;4914474;29;20536;-76
2021/06/17 07:52:37;;;;;;;3.40;3.10;;;29.70;99.90;;;;;;4917646;28;20657;-77
2021/06/17 07:55:04;;;;;;;3.33;3.03;;;29.80;99.90;;;;;;4910358;28;20908;-76
2021/06/17 07:57:31;;;;;;;3.83;3.35;;;29.90;99.90;;;;;;4923577;29;20449;-76
2021/06/17 07:59:57;;;;;;;3.63;3.28;;;30.10;99.90;;;;;;4915711;29;20449;-76
2021/06/17 08:02:22;;;;;;;4.03;3.65;;;30.30;99.90;;;;;;4907799;29;20398;-76
2021/06/17 08:04:48;;;;;;;5.30;3.20;;;30.60;99.90;;;;;;4918005;29;20408;-77
2021/06/17 08:07:14;;;;;;;4.93;3.63;;;30.70;99.40;;;;;;4928075;29;20394;-76
2021/06/17 08:09:40;;;;;;;6.70;3.22;;;30.90;97.70;;;;;;4923994;29;20417;-76
2021/06/17 08:12:06;;;;;;;4.32;3.50;;;30.60;95.90;;;;;;4892947;29;20746;-77
2021/06/17 08:14:32;;;;;;;3.72;3.30;;;30.90;98.10;;;;;;4902158;29;20429;-77
2021/06/17 08:16:58;;;;;;;3.17;2.93;;;31.10;95.70;;;;;;4941190;29;20557;-76
2021/06/17 08:19:31;;;;;;;3.25;2.92;;;31.10;94.70;;;;;;4934578;29;20509;-77
2021/06/17 08:22:03;;;;;;;3.30;2.90;;;31.20;95.30;;;;;;4921562;28;20432;-77
2021/06/17 08:24:28;;;;;;;3.35;3.10;;;31.20;95.80;;;;;;4927090;28;20532;-75
2021/06/17 08:26:54;;;;;;;3.07;2.87;;;31.20;93.70;;;;;;4928820;29;20468;-76
2021/06/17 08:29:20;;;;;;;4.60;3.10;;;31.20;92.20;;;;;;4908240;29;21056;-77
2021/06/17 08:31:47;;;;;;;3.42;3.10;;;31.50;92.80;;;;;;4923896;29;20453;-77
2021/06/17 08:34:12;;;;;;;3.42;3.00;;;31.60;93.40;;;;;;4922287;29;20417;-80
2021/06/17 08:36:39;;;;;;;3.20;2.90;;;31.70;92.70;;;;;;4929238;28;20428;-80
2021/06/17 08:39:05;;;;;;;2.95;2.70;;;32.00;91.90;;;;;;4895699;29;20407;-80
2021/06/17 08:41:31;;;;;;;3.00;2.80;;;32.30;88.30;;;;;;4926294;29;20499;-80
2021/06/17 08:43:57;;;;;;;6.53;2.90;;;32.30;89.30;;;;;;4925797;29;20489;-79
2021/06/17 08:46:23;;;;;;;3.50;3.10;;;32.30;89.50;;;;;;4921729;29;20409;-80
2021/06/17 08:48:49;;;;;;;3.75;3.20;;;32.60;90.00;;;;;;4915369;28;20424;-81
2021/06/17 08:51:16;;;;;;;3.03;2.80;;;32.70;83.50;;;;;;4913571;28;20731;-83
2021/06/17 08:53:42;;;;;;;2.70;2.50;;;32.70;83.20;;;;;;4909415;29;20409;-81
2021/06/17 08:56:08;;;;;;;2.65;2.45;;;32.80;82.60;;;;;;4930315;29;20409;-83
2021/06/17 08:58:33;;;;;;;2.70;2.50;;;32.80;81.10;;;;;;4894969;28;20413;-80
2021/06/17 09:00:59;;;;;;;4.00;2.70;;;32.90;77.70;;;;;;4943381;29;20974;-82
2021/06/17 09:03:25;;;;;;;3.90;2.90;;;32.90;77.30;;;;;;4911572;29;20456;-82
2021/06/17 09:05:52;;;;;;;3.20;2.90;;;33.00;75.80;;;;;;4918324;29;20468;-83
2021/06/17 09:08:28;;;;;;;3.83;2.92;;;33.10;76.40;;;;;;4909277;29;20449;-80
2021/06/17 09:10:54;;;;;;;2.55;2.35;;;33.00;76.20;;;;;;4939851;29;20732;-78
2021/06/17 09:13:20;;;;;;;2.83;2.63;;;33.20;77.30;;;;;;4929612;29;20401;-79
2021/06/17 09:15:52;;;;;;;3.55;3.25;;;33.50;74.90;;;;;;4913066;29;20481;-81
2021/06/17 09:18:26;;;;;;;3.03;2.77;;;33.30;71.70;;;;;;4904349;29;20405;-82
2021/06/17 09:20:56;;;;;;;3.20;2.90;;;33.10;71.90;;;;;;4920041;28;20462;-78
2021/06/17 09:23:32;;;;;;;2.78;2.58;;;33.10;74.50;;;;;;4903202;28;20399;-79
2021/06/17 09:26:00;;;;;;;4.80;3.45;;;33.30;76.10;;;;;;4915465;28;20429;-78
2021/06/17 09:28:27;;;;;;;6.57;2.80;;;33.80;74.80;;;;;;4925791;29;20460;-79
2021/06/17 09:30:54;;;;;;;2.75;2.55;;;34.20;72.60;;;;;;4936648;29;20386;-80
2021/06/17 09:33:24;;;;;;;4.57;3.00;;;34.50;70.70;;;;;;4919855;29;20491;-79
2021/06/17 09:35:55;;;;;;;3.00;2.72;;;34.60;71.20;;;;;;4910742;29;20398;-82
2021/06/17 09:38:22;;;;;;;2.92;2.72;;;34.60;67.10;;;;;;4931026;29;20925;-81
2021/06/17 09:40:51;;;;;;;2.90;2.70;;;34.50;67.70;;;;;;4906106;29;20397;-81
2021/06/17 09:43:18;;;;;;;2.60;2.40;;;34.70;69.30;;;;;;4899406;29;20410;-82
2021/06/17 09:45:51;;;;;;;2.53;2.40;;;35.10;67.90;;;;;;4903263;29;20429;-81
2021/06/17 09:48:43;;;;;;;3.35;2.50;;;35.50;67.40;;;;;;4937908;29;20461;-86
2021/06/17 09:51:27;;;;;;;2.92;2.35;;;35.10;60.50;;;;;;4919233;29;20463;-85
2021/06/17 09:54:09;;;;;;;2.40;2.20;;;35.00;64.80;;;;;;4938934;28;20494;-84
2021/06/17 09:56:36;;;;;;;2.60;2.40;;;35.30;60.50;;;;;;4924925;28;20398;-83
2021/06/17 09:59:03;;;;;;;2.10;2.00;;;35.60;59.70;;;;;;4912893;29;20399;-83
2021/06/17 10:01:43;;;;;;;11.11;2.54;;;35.80;63.00;;;;;;4101215;29;10002531;-83
2021/06/17 10:04:13;;;;;;;2.50;2.30;;;35.30;57.50;;;;;;4921998;29;20535;-83
2021/06/17 10:06:43;;;;;;;2.90;2.47;;;34.90;58.80;;;;;;4926448;29;20472;-82
2021/06/17 10:09:13;;;;;;;2.22;2.13;;;35.00;59.90;;;;;;4896834;29;20413;-82
2021/06/17 10:11:39;;;;;;;2.30;2.10;;;35.00;58.00;;;;;;4896040;29;21121;-82
2021/06/17 10:14:06;;;;;;;2.28;2.08;;;35.40;57.70;;;;;;4910031;29;20406;-86
2021/06/17 10:16:32;;;;;;;4.07;2.47;;;35.30;55.90;;;;;;4884768;29;20403;-80
2021/06/17 10:18:59;;;;;;;2.40;2.20;;;34.90;55.70;;;;;;4903779;29;20412;-82
2021/06/17 10:21:25;;;;;;;3.60;3.00;;;35.20;60.30;;;;;;4906751;29;21020;-85
2021/06/17 10:23:50;;;;;;;2.88;2.50;;;35.50;58.90;;;;;;4919119;29;20398;-84
2021/06/17 10:26:20;;;;;;;2.72;2.53;;;36.00;60.00;;;;;;4928278;29;20414;-82
2021/06/17 10:28:48;;;;;;;3.65;3.35;;;36.30;59.60;;;;;;4891784;29;20413;-80
2021/06/17 10:31:38;;;;;;;3.03;2.75;;;36.80;56.30;;;;;;4896875;28;20799;-83
2021/06/17 10:34:22;;;;;;;3.30;3.00;;;36.80;56.20;;;;;;4920111;29;20424;-85
2021/06/17 10:37:29;;;;;;;3.40;2.77;;;36.80;55.60;;;;;;4928620;29;20473;-85
2021/06/17 10:39:55;;;;;;;2.83;2.63;;;37.20;55.90;;;;;;4852576;29;20471;-83
2021/06/17 10:42:29;;;;;;;2.92;2.58;;;37.50;55.20;;;;;;4936382;29;20397;-82
2021/06/17 10:45:24;;;;;;;2.78;2.58;;;37.60;52.40;;;;;;4916513;29;20449;-83
2021/06/17 10:47:51;;;;;;;2.97;2.77;;;37.80;53.60;;;;;;4066190;29;10000988;-84
2021/06/17 10:50:20;;;;;;;2.70;2.50;;;37.70;53.30;;;;;;4915920;29;20404;-84
2021/06/17 10:52:46;;;;;;;2.55;2.35;;;38.00;53.40;;;;;;4936580;29;20422;-84
2021/06/17 10:55:16;;;;;;;2.45;2.30;;;38.10;50.80;;;;;;4916741;29;20406;-84
2021/06/17 10:57:46;;;;;;;2.77;2.57;;;38.50;50.00;;;;;;4886003;29;20406;-86
2021/06/17 11:00:48;;;;;;;2.60;2.40;;;38.90;51.40;;;;;;4917932;29;20405;-82
2021/06/17 11:03:14;;;;;;;2.80;2.55;;;38.90;50.90;;;;;;4907850;28;20468;-83
2021/06/17 11:05:41;;;;;;;2.80;2.60;;;39.30;50.90;;;;;;4938736;29;20405;-80
2021/06/17 11:08:28;;;;;;;2.60;2.40;;;39.40;49.50;;;;;;4950980;29;20403;-81
2021/06/17 11:10:57;;;;;;;2.80;2.60;;;39.50;47.40;;;;;;4937915;29;20486;-83
2021/06/17 11:13:34;;;;;;;2.20;2.10;;;39.20;45.30;;;;;;4956971;29;20448;-83
2021/06/17 11:16:01;;;;;;;2.10;2.00;;;39.20;46.70;;;;;;4938157;29;20783;-83
2021/06/17 11:18:43;;;;;;;2.10;1.90;;;39.20;46.20;;;;;;4922272;29;20514;-81
2021/06/17 11:21:22;;;;;;;2.22;2.03;;;39.20;45.00;;;;;;4940746;29;20453;-86
2021/06/17 11:23:59;;;;;;;2.28;2.08;;;38.70;42.30;;;;;;4931409;29;20400;-81
2021/06/17 11:26:45;;;;;;;2.60;2.40;;;39.30;46.30;;;;;;4919327;29;20399;-82
2021/06/17 11:29:15;;;;;;;2.58;2.38;;;39.70;45.20;;;;;;4923285;29;20467;-80
2021/06/17 11:31:54;;;;;;;2.40;2.20;;;40.00;42.40;;;;;;4907780;29;20466;-82
2021/06/17 11:34:31;;;;;;;3.77;2.13;;;40.20;44.30;;;;;;4936402;29;20433;-80
2021/06/17 11:37:03;;;;;;;2.30;1.92;;;40.60;43.30;;;;;;4934905;29;20408;-82
2021/06/17 11:39:33;;;;;;;3.50;2.63;;;40.50;42.60;;;;;;4927005;28;20413;-83
2021/06/17 11:42:00;;;;;;;2.50;2.30;;;39.50;40.80;;;;;;4918421;28;20482;-80
2021/06/17 11:44:27;;;;;;;2.60;2.40;;;39.40;47.00;;;;;;4934979;29;20402;-83
2021/06/17 11:47:09;;;;;;;2.40;2.20;;;39.70;45.00;;;;;;4907149;29;20405;-80
2021/06/17 11:49:44;;;;;;;2.50;2.30;;;40.10;45.60;;;;;;4916610;29;20453;-82
2021/06/17 11:52:12;;;;;;;2.40;2.20;;;40.50;45.00;;;;;;4912306;29;20424;-80
2021/06/17 11:54:38;;;;;;;2.88;2.50;;;40.80;46.10;;;;;;4935571;28;20418;-82
2021/06/17 11:57:04;;;;;;;2.80;2.60;;;40.90;44.10;;;;;;4901590;28;20482;-82
2021/06/17 11:59:36;;;;;;;3.13;2.42;;;40.60;44.00;;;;;;4914019;29;20769;-82
2021/06/17 12:02:18;;;;;;;2.60;2.40;;;40.40;44.20;;;;;;4915413;29;20433;-82
2021/06/17 12:05:05;;;;;;;2.92;2.63;;;40.50;43.40;;;;;;4925224;29;20484;-82
2021/06/17 12:07:37;;;;;;;2.80;2.60;;;40.00;41.90;;;;;;4926139;29;20441;-82
2021/06/17 12:10:11;;;;;;;2.90;2.60;;;40.10;46.20;;;;;;4944598;29;20571;-80
2021/06/17 12:12:52;;;;;;;2.97;2.67;;;39.70;42.70;;;;;;4935393;28;20446;-82
2021/06/17 12:15:26;;;;;;;3.00;2.80;;;39.40;42.50;;;;;;4926333;28;20443;-81
2021/06/17 12:18:00;;;;;;;2.85;2.60;;;39.40;44.00;;;;;;4915983;28;20483;-81
2021/06/17 12:20:31;;;;;;;2.80;2.60;;;39.60;46.80;;;;;;4926325;29;20921;-81
2021/06/17 12:23:00;;;;;;;2.90;2.70;;;39.60;45.20;;;;;;4942457;29;20448;-81
2021/06/17 12:25:30;;;;;;;3.08;2.78;;;39.10;43.00;;;;;;4940699;28;20967;-82
2021/06/17 12:27:59;;;;;;;2.65;2.45;;;38.70;43.30;;;;;;4928886;28;20402;-81
2021/06/17 12:30:27;;;;;;;2.60;2.40;;;39.60;45.60;;;;;;4906839;29;20465;-84
2021/06/17 12:32:54;;;;;;;3.10;2.80;;;40.40;45.80;;;;;;4919334;29;20423;-79
2021/06/17 12:35:23;;;;;;;4.15;2.83;;;41.00;45.20;;;;;;4918338;29;20458;-79
2021/06/17 12:37:57;;;;;;;2.78;2.58;;;41.20;43.20;;;;;;4898021;29;20423;-82
2021/06/17 12:40:43;;;;;;;4.20;2.70;;;40.50;42.70;;;;;;4943948;29;20391;-84
2021/06/17 12:43:17;;;;;;;2.80;2.53;;;40.40;42.50;;;;;;4922502;29;20411;-83
2021/06/17 12:46:04;;;;;;;2.77;2.57;;;40.70;44.90;;;;;;4933885;28;20420;-83
2021/06/17 12:54:27;;;;;;;2.30;2.10;;;40.60;44.30;;;;;;4936399;29;20404;-83
2021/06/17 12:56:59;;;;;;;2.15;2.05;;;40.70;40.00;;;;;;4940722;29;20415;-80
2021/06/17 12:59:42;;;;;;;2.47;2.28;;;41.00;42.80;;;;;;4908943;29;20411;-81
2021/06/17 13:02:14;;;;;;;2.90;2.70;;;40.90;40.00;;;;;;4918295;28;20427;-82